Time;durP1;ratioP1;P1;durP2;ratioP2;P2;SDS_P1;SDS_P2;PMS_P1;PMS_P2;Temp;Humidity;BMP_temperature;BMP_pressure;BME280_temperature;BME280_humidity;BME280_pressure;Samples;Min_cycle;Max_cycle;Signal;HPM_P1;HPM_P2
2022/12/14 00:01:14;;;;;;;3.30;1.92;;;;;;;15.14;55.86;97686.91;4955148;29;20024;-79
2022/12/14 00:03:40;;;;;;;3.75;2.40;;;;;;;15.15;56.05;97685.97;4938641;29;20044;-79
2022/12/14 00:06:23;;;;;;;3.13;1.92;;;;;;;15.14;55.96;97698.28;4938470;29;20494;-79
2022/12/14 00:08:50;;;;;;;3.70;2.17;;;;;;;15.12;55.88;97699.31;4938360;29;20032;-79
2022/12/14 00:11:18;;;;;;;2.95;1.92;;;;;;;15.12;56.09;97699.31;4938291;29;20513;-79
2022/12/14 00:13:44;;;;;;;4.15;2.10;;;;;;;15.13;56.09;97707.09;4938171;29;20135;-78
2022/12/14 00:16:12;;;;;;;4.38;2.13;;;;;;;15.11;56.30;97705.50;4938238;29;20035;-78
2022/12/14 00:18:38;;;;;;;3.95;2.10;;;;;;;15.14;55.87;97702.69;4938122;29;20028;-79
2022/12/14 00:21:05;;;;;;;3.42;1.88;;;;;;;15.13;56.13;97722.88;4938188;29;20028;-79
2022/12/14 00:23:31;;;;;;;3.15;1.98;;;;;;;15.12;55.88;97720.34;4938187;29;20043;-79
2022/12/14 00:25:56;;;;;;;3.95;2.00;;;;;;;15.12;55.97;97721.16;4937618;29;20032;-78
2022/12/14 00:28:22;;;;;;;3.78;2.08;;;;;;;15.14;55.93;97718.44;4937606;29;20049;-78
2022/12/14 00:30:47;;;;;;;3.78;1.92;;;;;;;15.14;55.89;97718.44;4938050;29;20393;-79
2022/12/14 00:33:13;;;;;;;3.63;2.00;;;;;;;15.15;55.94;97714.88;4920866;29;20035;-79
2022/12/14 00:35:38;;;;;;;3.35;1.90;;;;;;;15.15;56.04;97720.13;4937974;29;20028;-79
2022/12/14 00:38:03;;;;;;;3.83;1.80;;;;;;;15.16;55.57;97716.56;4937868;29;20046;-79
2022/12/14 00:40:29;;;;;;;3.10;1.80;;;;;;;15.16;55.83;97727.09;4937799;29;20086;-79
2022/12/14 00:42:54;;;;;;;4.15;2.13;;;;;;;15.16;55.58;97727.09;4937525;29;20032;-79
2022/12/14 00:45:20;;;;;;;3.30;1.98;;;;;;;15.15;55.55;97736.75;4937708;29;20102;-78
2022/12/14 00:47:45;;;;;;;3.45;1.80;;;;;;;15.15;55.83;97725.38;4937769;29;20463;-79
2022/12/14 00:50:10;;;;;;;4.22;2.15;;;;;;;15.17;55.77;97726.97;4937710;29;20027;-79
2022/12/14 00:52:36;;;;;;;3.60;1.77;;;;;;;15.16;55.96;97732.34;4949561;29;20453;-79
2022/12/14 00:55:01;;;;;;;3.03;1.73;;;;;;;15.15;55.62;97726.22;4956857;29;20038;-79
2022/12/14 00:57:29;;;;;;;2.65;1.77;;;;;;;15.16;55.70;97721.81;4956249;28;20090;-79
2022/12/14 00:59:54;;;;;;;3.78;1.85;;;;;;;15.13;55.85;97722.00;4956572;29;20042;-79
2022/12/14 01:02:20;;;;;;;2.85;1.85;;;;;;;15.15;55.93;97725.38;4946514;29;20365;-79
2022/12/14 01:04:45;;;;;;;2.70;1.80;;;;;;;15.13;55.73;97722.00;4920347;29;20086;-79
2022/12/14 01:07:11;;;;;;;2.92;1.70;;;;;;;15.15;55.86;97728.00;4937530;29;20032;-79
2022/12/14 01:09:36;;;;;;;3.15;1.80;;;;;;;15.16;55.70;97737.59;4920352;29;20027;-79
2022/12/14 01:12:01;;;;;;;2.97;1.60;;;;;;;15.16;55.57;97740.22;4937046;29;20111;-78
2022/12/14 01:14:27;;;;;;;2.80;1.65;;;;;;;15.16;55.65;97737.59;4937422;29;20119;-79
2022/12/14 01:16:52;;;;;;;3.33;2.03;;;;;;;15.15;55.85;97743.75;4937228;29;20392;-79
2022/12/14 01:19:18;;;;;;;3.25;1.80;;;;;;;15.15;55.92;97751.66;4937133;29;20023;-79
2022/12/14 01:21:43;;;;;;;2.47;1.38;;;;;;;15.15;55.78;97755.13;4937160;29;20027;-79
2022/12/14 01:24:09;;;;;;;3.10;1.70;;;;;;;15.15;55.70;97749.88;4935949;29;20032;-79
2022/12/14 01:26:39;;;;;;;3.42;1.63;;;;;;;15.16;55.76;97759.44;4936769;29;20034;-79
2022/12/14 01:29:06;;;;;;;3.42;1.88;;;;;;;15.16;55.69;97759.44;4937179;29;20031;-79
2022/12/14 01:31:34;;;;;;;3.17;1.73;;;;;;;15.17;55.39;97760.28;4936844;29;20038;-79
2022/12/14 01:34:00;;;;;;;3.20;1.77;;;;;;;15.17;55.70;97768.19;4936759;29;20540;-79
2022/12/14 01:36:28;;;;;;;3.00;1.60;;;;;;;15.17;55.53;97771.63;4936913;29;20032;-79
2022/12/14 01:38:56;;;;;;;2.75;1.80;;;;;;;15.19;55.48;97774.16;4935915;29;20055;-79
2022/12/14 01:41:28;;;;;;;2.55;1.63;;;;;;;15.21;55.60;97780.16;4936515;29;20392;-79
2022/12/14 01:43:57;;;;;;;2.83;1.80;;;;;;;15.18;55.49;97783.00;4919609;29;20114;-79
2022/12/14 01:46:31;;;;;;;2.75;1.58;;;;;;;15.19;55.52;97784.69;4936690;29;20071;-79
2022/12/14 01:49:24;;;;;;;3.38;1.70;;;;;;;15.20;55.44;97790.78;4936765;29;20039;-79
2022/12/14 01:51:56;;;;;;;2.58;1.52;;;;;;;15.18;55.57;97788.25;4942448;29;20058;-79
2022/12/14 01:54:24;;;;;;;2.17;1.30;;;;;;;15.17;55.46;97797.91;4955591;29;20034;-78
2022/12/14 01:56:51;;;;;;;3.33;1.65;;;;;;;15.18;55.44;97804.00;4951535;28;20047;-79
2022/12/14 01:59:24;;;;;;;3.42;2.03;;;;;;;15.19;55.52;97816.22;4936381;29;20397;-78
2022/12/14 02:01:50;;;;;;;2.97;1.70;;;;;;;15.19;55.54;97831.13;4936548;29;20155;-79
2022/12/14 02:04:17;;;;;;;3.42;1.70;;;;;;;15.19;55.54;97837.22;4936475;29;20070;-79
2022/12/14 02:06:47;;;;;;;2.33;1.60;;;;;;;15.18;55.52;97848.69;4936310;29;20023;-80
2022/12/14 02:09:19;;;;;;;2.58;1.48;;;;;;;15.18;55.56;97851.31;4935968;29;20159;-79
2022/12/14 02:12:06;;;;;;;2.55;1.58;;;;;;;15.19;55.48;97842.47;4936288;29;20051;-79
2022/12/14 02:14:33;;;;;;;2.67;1.50;;;;;;;15.17;55.46;97837.31;4919200;29;20539;-79
2022/12/14 02:16:59;;;;;;;3.03;1.73;;;;;;;15.18;55.70;97838.16;4936081;29;20147;-79
2022/12/14 02:19:25;;;;;;;2.90;1.80;;;;;;;15.19;55.44;97816.22;4935972;29;20020;-79
2022/12/14 02:22:30;;;;;;;1.77;1.27;;;;;;;15.18;55.68;97814.53;4935945;29;20034;-79
2022/12/14 02:25:32;;;;;;;3.17;1.60;;;;;;;15.20;55.55;97825.78;4935827;29;20019;-79
2022/12/14 02:28:16;;;;;;;3.42;1.63;;;;;;;15.18;55.63;97819.78;4935957;29;20102;-79
2022/12/14 02:30:46;;;;;;;2.38;1.23;;;;;;;15.18;55.68;97814.53;4935952;29;20083;-79
2022/12/14 02:33:33;;;;;;;2.75;1.58;;;;;;;15.20;55.64;97825.78;4935903;29;20030;-79
2022/12/14 02:36:15;;;;;;;2.88;1.40;;;;;;;15.17;55.77;97820.72;4918721;29;20064;-79
2022/12/14 02:39:19;;;;;;;2.70;1.50;;;;;;;15.21;55.68;97822.19;4935787;29;20047;-79
2022/12/14 02:41:59;;;;;;;3.10;1.75;;;;;;;15.21;55.39;97824.81;4877579;29;20037;-79
2022/12/14 02:44:38;;;;;;;2.22;1.40;;;;;;;15.21;55.46;97832.72;4877398;29;20524;-80
2022/12/14 02:47:22;;;;;;;2.35;1.20;;;;;;;15.21;55.40;97824.81;4877259;29;20040;-80
2022/12/14 02:49:56;;;;;;;2.50;1.40;;;;;;;15.21;55.54;97819.56;4876858;29;20041;-80
2022/12/14 02:52:37;;;;;;;3.08;1.50;;;;;;;15.20;55.49;97817.88;4886502;29;20112;-79
2022/12/14 02:55:05;;;;;;;3.05;1.60;;;;;;;15.21;55.52;97821.38;4895605;29;20035;-79
2022/12/14 02:57:48;;;;;;;2.50;1.40;;;;;;;15.23;55.56;97822.09;4895538;29;20083;-79
2022/12/14 03:00:14;;;;;;;2.28;1.20;;;;;;;15.23;55.43;97822.97;4895558;29;20114;-80
2022/12/14 03:02:42;;;;;;;2.38;1.50;;;;;;;15.21;55.62;97824.81;4895592;29;20517;-79
2022/12/14 03:05:09;;;;;;;2.78;1.58;;;;;;;15.21;55.57;97830.09;4895604;29;20036;-79
2022/12/14 03:07:43;;;;;;;1.98;1.23;;;;;;;15.23;55.55;97832.63;4895240;29;20036;-80
2022/12/14 03:10:14;;;;;;;1.88;1.10;;;;;;;15.23;55.51;97832.63;4895546;29;20397;-79
2022/12/14 03:12:44;;;;;;;2.10;1.20;;;;;;;15.22;55.29;97836.19;4895377;29;20036;-79
2022/12/14 03:15:13;;;;;;;2.63;1.25;;;;;;;15.20;55.38;97825.78;4912766;29;20066;-79
2022/12/14 03:17:41;;;;;;;1.70;1.10;;;;;;;15.21;55.44;97827.44;4954480;29;20027;-79
2022/12/14 03:20:11;;;;;;;1.70;1.15;;;;;;;15.22;55.46;97821.28;4954505;29;20097;-79
2022/12/14 03:23:03;;;;;;;2.47;1.20;;;;;;;15.21;55.55;97822.19;4936865;29;20028;-79
2022/12/14 03:25:34;;;;;;;1.63;1.10;;;;;;;15.22;55.57;97816.03;4947890;28;20504;-79
2022/12/14 03:28:16;;;;;;;2.00;1.15;;;;;;;15.23;55.46;97825.59;4954437;29;20387;-79
2022/12/14 03:30:46;;;;;;;2.35;1.20;;;;;;;15.22;55.25;97821.28;4954459;29;20031;-79
2022/12/14 03:33:21;;;;;;;2.72;1.30;;;;;;;15.23;55.41;97825.59;4935464;29;20043;-79
2022/12/14 03:36:02;;;;;;;2.45;1.48;;;;;;;15.21;55.57;97824.81;4935164;29;20059;-79
2022/12/14 03:38:41;;;;;;;1.75;1.10;;;;;;;15.23;55.49;97827.38;4934123;29;20613;-79
2022/12/14 03:41:12;;;;;;;2.70;1.30;;;;;;;15.22;55.43;97829.16;4935148;29;20059;-79
2022/12/14 03:44:33;;;;;;;2.72;1.10;;;;;;;15.23;55.36;97827.38;4935104;29;20032;-79
2022/12/14 03:46:58;;;;;;;2.03;1.23;;;;;;;15.21;55.69;97814.31;4857737;29;20046;-80
2022/12/14 03:49:59;;;;;;;1.92;1.02;;;;;;;15.22;55.49;97831.78;4860065;29;20095;-78
2022/12/14 03:53:05;;;;;;;2.30;0.90;;;;;;;15.23;55.30;97836.09;4875986;29;20044;-78
2022/12/14 03:55:39;;;;;;;2.13;1.10;;;;;;;15.23;55.50;97841.34;4811944;29;20047;-79
2022/12/14 03:58:16;;;;;;;2.30;1.30;;;;;;;15.24;55.28;97860.56;4800887;29;20051;-79
2022/12/14 04:01:14;;;;;;;1.77;1.02;;;;;;;15.25;55.28;97839.47;4799961;29;20148;-79
2022/12/14 04:03:48;;;;;;;1.80;1.10;;;;;;;15.23;55.33;97828.22;4784715;30;20047;-79
2022/12/14 04:06:37;;;;;;;2.00;1.13;;;;;;;15.22;55.65;97828.31;4787527;29;20055;-79
2022/12/14 04:09:18;;;;;;;1.92;1.00;;;;;;;15.24;55.44;97835.16;4787975;29;20597;-79
2022/12/14 04:20:30;;;;;;;1.70;0.93;;;;;;;15.22;55.54;97836.19;4787853;30;20054;-78
2022/12/14 04:23:11;;;;;;;2.03;1.00;;;;;;;15.22;55.48;97844.94;4811062;29;20050;-79
2022/12/14 04:26:03;;;;;;;1.33;0.80;;;;;;;15.22;55.28;97844.94;4824069;29;20053;-79
2022/12/14 04:31:32;;;;;;;1.52;1.10;;;;;;;15.22;55.64;97858.06;4891245;29;20096;-78
2022/12/14 04:34:02;;;;;;;1.55;0.88;;;;;;;15.20;55.54;97854.69;4918612;29;20024;-79
2022/12/14 04:36:50;;;;;;;2.47;1.00;;;;;;;15.22;55.72;97863.31;4918901;29;20080;-78
2022/12/14 04:39:42;;;;;;;1.42;0.95;;;;;;;15.21;55.46;97866.88;4917395;29;20488;-79
2022/12/14 04:42:11;;;;;;;1.67;1.10;;;;;;;15.20;55.43;97869.63;4918888;29;20051;-79
2022/12/14 04:44:41;;;;;;;1.80;1.10;;;;;;;15.19;55.60;97868.75;4918924;29;20032;-79
2022/12/14 04:47:11;;;;;;;2.33;0.98;;;;;;;15.19;55.66;97879.28;4918678;29;20058;-79
2022/12/14 04:49:51;;;;;;;1.95;1.00;;;;;;;15.19;55.74;97874.00;4918330;29;20020;-80
2022/12/14 04:52:18;;;;;;;1.58;0.90;;;;;;;15.19;55.56;97868.75;4918728;29;20032;-79
2022/12/14 04:55:00;;;;;;;1.95;1.05;;;;;;;15.19;55.67;97871.38;4918652;29;20024;-79
2022/12/14 04:57:48;;;;;;;1.63;1.02;;;;;;;15.21;55.40;97868.66;4918400;29;20423;-79
2022/12/14 05:00:15;;;;;;;2.45;1.10;;;;;;;15.18;55.49;97867.06;4918404;29;20437;-79
2022/12/14 05:03:09;;;;;;;1.60;0.85;;;;;;;15.20;55.47;97862.56;4918438;29;20028;-79
2022/12/14 05:06:06;;;;;;;1.45;0.93;;;;;;;15.19;55.49;97863.50;4918359;29;20060;-79
2022/12/14 05:08:41;;;;;;;1.65;1.00;;;;;;;15.17;55.57;97870.66;4918465;29;20020;-79
2022/12/14 05:11:23;;;;;;;1.52;0.80;;;;;;;15.17;55.64;97875.91;4918100;29;20036;-79
2022/12/14 05:13:49;;;;;;;2.35;1.00;;;;;;;15.18;55.46;97877.59;4918240;29;20426;-80
2022/12/14 05:16:17;;;;;;;1.80;1.00;;;;;;;15.18;55.57;97861.81;4918254;29;20039;-79
2022/12/14 05:18:43;;;;;;;1.23;0.80;;;;;;;15.18;55.63;97856.56;4917940;29;20060;-79
2022/12/14 05:21:45;;;;;;;1.65;0.80;;;;;;;15.19;55.48;97863.50;4918037;29;20040;-79
2022/12/14 05:23:56;;;;;;;1.23;0.80;;;;;;;15.19;55.50;97867.91;4918012;29;20024;-79
2022/12/14 05:26:21;;;;;;;1.90;1.00;;;;;;;15.19;55.70;97870.53;4917917;29;20366;-79
2022/12/14 05:28:46;;;;;;;2.45;1.02;;;;;;;15.19;55.46;97868.75;4918073;29;20035;-79
2022/12/14 05:31:12;;;;;;;1.63;0.77;;;;;;;15.20;55.77;97867.81;4917956;29;20027;-78
2022/12/14 05:33:38;;;;;;;1.45;0.80;;;;;;;15.18;55.67;97856.56;4917585;29;20024;-79
2022/12/14 05:36:03;;;;;;;1.48;0.80;;;;;;;15.17;55.67;97865.38;4917838;29;20475;-78
2022/12/14 05:38:29;;;;;;;1.88;0.90;;;;;;;15.20;55.35;97859.94;4917830;29;20028;-79
2022/12/14 05:40:54;;;;;;;1.38;0.68;;;;;;;15.19;55.53;97860.00;4917602;29;20035;-78
2022/12/14 05:43:20;;;;;;;1.50;0.90;;;;;;;15.19;55.66;97863.50;4917587;29;20024;-79
2022/12/14 05:45:45;;;;;;;1.92;1.27;;;;;;;15.21;55.46;97877.38;4917742;29;20500;-79
2022/12/14 05:48:10;;;;;;;2.08;1.08;;;;;;;15.20;55.58;97870.44;4917411;29;20107;-79
2022/12/14 05:50:36;;;;;;;1.40;0.85;;;;;;;15.22;55.52;97875.59;4917336;29;20393;-79
2022/12/14 05:53:01;;;;;;;1.58;0.85;;;;;;;15.22;55.59;97878.22;4912520;29;20028;-79
2022/12/14 05:55:27;;;;;;;2.15;0.80;;;;;;;15.22;55.60;97886.13;4917523;29;20077;-79
2022/12/14 05:57:52;;;;;;;1.42;0.80;;;;;;;15.22;55.39;97878.22;4943349;29;20070;-79
2022/12/14 06:00:18;;;;;;;1.58;0.82;;;;;;;15.21;55.62;97885.25;4955544;29;20034;-79
2022/12/14 06:02:43;;;;;;;1.50;1.00;;;;;;;15.20;55.58;97880.94;4955420;29;20037;-79
2022/12/14 06:05:08;;;;;;;1.10;0.60;;;;;;;15.21;55.59;97882.63;4955450;29;20445;-79
2022/12/14 06:07:34;;;;;;;1.77;0.77;;;;;;;15.20;55.33;97880.94;4955577;29;20023;-79
2022/12/14 06:09:59;;;;;;;1.02;0.65;;;;;;;15.21;55.58;97882.63;4955405;29;20035;-79
2022/12/14 06:12:25;;;;;;;2.10;0.98;;;;;;;15.21;55.42;97876.56;4955359;29;20035;-79
2022/12/14 06:14:50;;;;;;;1.40;0.90;;;;;;;15.21;55.40;97879.19;4955237;29;20023;-79
2022/12/14 06:17:16;;;;;;;1.58;0.90;;;;;;;15.21;55.44;97882.63;4954980;29;20037;-79
2022/12/14 06:19:42;;;;;;;1.33;0.70;;;;;;;15.22;55.24;97884.34;4955243;29;20118;-79
2022/12/14 06:22:07;;;;;;;1.00;0.70;;;;;;;15.21;55.59;97885.25;4955143;29;20035;-79
2022/12/14 06:24:32;;;;;;;1.42;0.85;;;;;;;15.22;55.36;97892.22;4954722;28;20115;-79
2022/12/14 06:26:58;;;;;;;1.58;0.93;;;;;;;15.24;55.33;97906.09;4955165;29;20028;-79
2022/12/14 06:29:23;;;;;;;1.25;0.75;;;;;;;15.23;55.44;97911.44;4955212;29;20499;-79
2022/12/14 06:31:49;;;;;;;1.92;0.90;;;;;;;15.23;55.31;97906.19;4937559;29;20027;-79
2022/12/14 06:34:14;;;;;;;1.90;0.77;;;;;;;15.24;55.29;97915.75;4955034;29;20437;-79
2022/12/14 06:36:41;;;;;;;1.20;0.80;;;;;;;15.23;55.36;97917.56;4954982;29;20028;-80
2022/12/14 06:39:11;;;;;;;1.25;0.80;;;;;;;15.22;55.29;97923.75;4955076;29;20392;-79
2022/12/14 06:41:37;;;;;;;1.67;0.90;;;;;;;15.23;55.37;97928.06;4955122;29;20021;-79
2022/12/14 06:44:04;;;;;;;1.52;1.02;;;;;;;15.24;55.04;97935.00;4954592;29;20034;-79
2022/12/14 06:46:29;;;;;;;1.67;0.80;;;;;;;15.24;55.41;97935.00;4937340;29;20535;-79
2022/12/14 06:48:55;;;;;;;1.38;0.73;;;;;;;15.23;55.38;97938.59;4954884;29;20027;-79
2022/12/14 06:51:22;;;;;;;2.08;0.98;;;;;;;15.22;55.43;97936.03;4954573;29;20416;-79
2022/12/14 06:53:52;;;;;;;2.15;0.77;;;;;;;15.22;55.41;97942.16;4954982;29;20118;-79
2022/12/14 06:56:19;;;;;;;1.45;0.85;;;;;;;15.22;55.28;97936.03;4954608;28;20027;-78
2022/12/14 06:58:45;;;;;;;2.03;0.93;;;;;;;15.22;55.50;97944.78;4954759;29;20032;-79
2022/12/14 07:01:13;;;;;;;1.77;0.80;;;;;;;15.23;55.30;97949.09;4954463;29;20495;-79
2022/12/14 07:03:40;;;;;;;1.30;0.82;;;;;;;15.23;55.28;97948.25;4954585;29;20027;-79
2022/12/14 07:06:06;;;;;;;2.05;0.98;;;;;;;15.22;55.24;97957.94;4954692;29;20472;-79
2022/12/14 07:08:33;;;;;;;1.38;0.77;;;;;;;15.22;55.36;97963.19;4951932;29;20074;-80
2022/12/14 07:11:11;;;;;;;1.52;0.85;;;;;;;15.23;55.48;97962.25;4954973;29;20467;-79
2022/12/14 07:13:38;;;;;;;1.73;0.80;;;;;;;15.20;55.35;97962.41;4954298;29;20027;-79
2022/12/14 07:16:05;;;;;;;1.60;0.95;;;;;;;15.23;55.27;97974.53;4954525;29;20058;-79
2022/12/14 07:18:31;;;;;;;1.63;0.90;;;;;;;15.22;55.43;97978.94;4954678;29;20032;-80
2022/12/14 07:21:10;;;;;;;1.45;0.80;;;;;;;15.22;55.31;97959.69;4954729;29;20110;-79
2022/12/14 07:23:37;;;;;;;2.08;1.35;;;;;;;15.23;55.22;97962.25;4954422;29;20031;-78
2022/12/14 07:26:04;;;;;;;2.20;1.00;;;;;;;15.22;55.47;97964.94;4954351;29;20023;-79
2022/12/14 07:28:30;;;;;;;0.95;0.63;;;;;;;15.22;55.37;97971.06;4953715;29;20036;-79
2022/12/14 07:30:57;;;;;;;1.55;0.80;;;;;;;15.23;55.26;97980.63;4954520;29;20023;-79
2022/12/14 07:33:24;;;;;;;1.92;0.88;;;;;;;15.24;55.25;97974.44;4954478;29;20031;-79
2022/12/14 07:35:49;;;;;;;1.42;0.98;;;;;;;15.22;55.37;97973.69;4954265;28;20027;-79
2022/12/14 07:38:15;;;;;;;1.98;0.80;;;;;;;15.23;55.25;97970.13;4958325;29;20031;-79
2022/12/14 07:40:42;;;;;;;1.85;1.00;;;;;;;15.23;55.19;97970.13;4958006;29;20031;-79
2022/12/14 07:43:07;;;;;;;2.20;0.90;;;;;;;15.24;55.13;97979.69;4958166;29;20038;-79
2022/12/14 07:45:33;;;;;;;1.48;0.60;;;;;;;15.23;55.44;97980.63;4958257;29;20035;-79
2022/12/14 07:47:58;;;;;;;3.28;1.00;;;;;;;15.22;55.30;97983.34;4958013;29;20035;-79
2022/12/14 07:50:24;;;;;;;2.08;1.13;;;;;;;15.23;55.41;97985.03;4957957;29;20082;-78
2022/12/14 07:52:49;;;;;;;1.50;0.88;;;;;;;15.22;55.32;97978.09;4957805;29;20412;-79
2022/12/14 07:55:15;;;;;;;1.83;1.00;;;;;;;15.24;55.31;97986.72;4957969;29;20396;-79
2022/12/14 07:57:40;;;;;;;0.98;0.68;;;;;;;15.22;55.44;97983.34;4957290;29;20114;-79
2022/12/14 08:00:06;;;;;;;1.80;1.00;;;;;;;15.23;55.41;97987.66;4957643;29;20038;-79
2022/12/14 08:02:31;;;;;;;1.90;0.90;;;;;;;15.20;55.49;97986.06;4957702;29;20038;-79
2022/12/14 08:04:57;;;;;;;1.42;0.88;;;;;;;15.21;55.30;97987.75;4957490;29;20035;-79
2022/12/14 08:07:22;;;;;;;1.65;0.80;;;;;;;15.20;55.47;97988.69;4957618;29;20035;-79
2022/12/14 08:09:48;;;;;;;2.92;1.30;;;;;;;15.23;55.20;97996.41;4956551;29;20127;-79
2022/12/14 08:12:13;;;;;;;2.53;0.90;;;;;;;15.21;55.44;97998.25;4957366;29;20473;-79
2022/12/14 08:14:38;;;;;;;2.00;0.80;;;;;;;15.20;55.51;97996.56;4940223;29;20034;-79
2022/12/14 08:17:04;;;;;;;2.10;1.00;;;;;;;15.21;55.47;98000.06;4957569;29;20086;-79
2022/12/14 08:19:29;;;;;;;1.92;0.90;;;;;;;15.22;55.52;98015.75;4957562;29;20037;-79
2022/12/14 08:21:54;;;;;;;1.88;1.13;;;;;;;15.22;55.32;98020.13;4957488;29;20113;-79
2022/12/14 08:24:20;;;;;;;2.22;1.30;;;;;;;15.20;55.69;98029.91;4957262;29;20031;-79
2022/12/14 08:26:45;;;;;;;2.55;1.00;;;;;;;15.21;55.47;98024.53;4957070;29;20480;-79
2022/12/14 08:29:13;;;;;;;1.90;1.05;;;;;;;15.21;55.54;98024.53;4957321;29;20035;-78
2022/12/14 08:31:40;;;;;;;2.15;1.20;;;;;;;15.22;55.41;98023.63;4957281;29;20054;-78
2022/12/14 08:34:05;;;;;;;1.60;1.05;;;;;;;15.20;55.43;98017.59;4956958;29;20027;-79
2022/12/14 08:36:33;;;;;;;1.98;1.13;;;;;;;15.23;55.52;98022.69;4939871;29;20037;-79
2022/12/14 08:39:05;;;;;;;2.30;1.10;;;;;;;15.22;55.59;98020.13;4957164;29;20031;-79
2022/12/14 08:41:30;;;;;;;3.22;1.50;;;;;;;15.20;55.72;98011.50;4956901;29;20067;-79
2022/12/14 08:43:58;;;;;;;3.25;1.70;;;;;;;15.23;55.60;98025.31;4956966;29;20023;-79
2022/12/14 08:46:25;;;;;;;2.90;1.55;;;;;;;15.23;55.54;98012.16;4956959;29;20472;-78
2022/12/14 08:48:52;;;;;;;2.78;1.52;;;;;;;15.23;55.44;98012.16;4956748;28;20027;-78
2022/12/14 08:51:19;;;;;;;2.25;1.50;;;;;;;15.22;55.59;98009.63;4956663;29;20459;-79
2022/12/14 08:53:48;;;;;;;2.63;1.50;;;;;;;15.23;55.28;98017.41;4957125;29;20456;-81
2022/12/14 08:56:16;;;;;;;2.92;1.50;;;;;;;15.25;55.47;98022.59;4956721;28;20031;-79
2022/12/14 08:58:42;;;;;;;2.65;1.90;;;;;;;15.25;55.32;98020.78;4956899;29;20039;-80
2022/12/14 09:01:13;;;;;;;2.53;1.35;;;;;;;15.25;55.26;98033.94;4956777;29;20027;-80
2022/12/14 09:03:46;;;;;;;4.00;1.70;;;;;;;15.25;55.47;98036.56;4957744;29;20031;-81
2022/12/14 09:06:15;;;;;;;2.72;1.40;;;;;;;15.26;55.48;98037.41;4958900;29;20047;-81
2022/12/14 09:08:41;;;;;;;3.50;1.50;;;;;;;15.25;55.56;98039.19;4958740;29;20023;-79
2022/12/14 09:11:11;;;;;;;2.72;1.33;;;;;;;15.26;55.34;98043.50;4939152;29;20090;-79
2022/12/14 09:13:36;;;;;;;3.58;1.88;;;;;;;15.26;55.34;98042.66;4956592;29;20035;-78
2022/12/14 09:16:05;;;;;;;2.60;1.40;;;;;;;15.24;55.45;98039.28;4956635;29;20030;-78
2022/12/14 09:18:33;;;;;;;3.53;1.80;;;;;;;15.25;55.50;98047.06;4956514;29;20057;-79
2022/12/14 09:20:59;;;;;;;3.47;1.60;;;;;;;15.27;55.50;98049.63;4956283;29;20039;-79
2022/12/14 09:23:26;;;;;;;3.05;1.60;;;;;;;15.28;55.17;98060.03;4956466;29;20027;-79
2022/12/14 09:26:14;;;;;;;2.03;1.38;;;;;;;15.28;55.19;98062.69;4955842;29;20114;-79
2022/12/14 09:28:41;;;;;;;3.50;1.70;;;;;;;15.28;55.44;98060.03;4956160;29;20031;-79
2022/12/14 09:31:10;;;;;;;3.42;1.85;;;;;;;15.30;55.33;98065.19;4939068;29;20031;-79
2022/12/14 09:33:36;;;;;;;3.30;1.70;;;;;;;15.30;55.25;98063.41;4956265;29;20027;-79
2022/12/14 09:36:07;;;;;;;2.95;1.50;;;;;;;15.32;55.30;98065.09;4955976;29;20027;-80
2022/12/14 09:38:35;;;;;;;4.10;1.70;;;;;;;15.30;55.24;98068.66;4949402;29;20059;-79
2022/12/14 09:41:03;;;;;;;3.85;1.50;;;;;;;15.33;55.08;98074.66;4936931;29;20035;-79
2022/12/14 09:43:42;;;;;;;2.85;1.60;;;;;;;15.33;55.27;98079.94;4936990;29;20110;-80
2022/12/14 09:46:29;;;;;;;3.53;1.55;;;;;;;15.35;55.08;98083.34;4936841;29;20039;-79
2022/12/14 09:48:56;;;;;;;3.05;1.52;;;;;;;15.32;55.20;98081.72;4936845;29;20043;-79
2022/12/14 09:51:28;;;;;;;3.00;1.40;;;;;;;15.33;55.07;98079.94;4938904;29;20118;-79
2022/12/14 09:53:59;;;;;;;2.95;1.30;;;;;;;15.32;55.12;98088.75;4955257;29;20026;-78
2022/12/14 09:56:25;;;;;;;1.95;1.30;;;;;;;15.34;55.12;98079.03;4955364;29;20059;-79
2022/12/14 09:58:54;;;;;;;2.88;1.67;;;;;;;15.32;55.05;98083.50;4954821;28;20073;-79
2022/12/14 10:01:22;;;;;;;3.72;1.70;;;;;;;15.33;55.24;98106.22;4955542;29;20038;-79
2022/12/14 10:04:03;;;;;;;3.28;1.50;;;;;;;15.34;55.05;98100.88;4955634;29;20060;-80
2022/12/14 10:06:31;;;;;;;2.28;1.33;;;;;;;15.34;55.00;98103.50;4955554;29;20027;-80
2022/12/14 10:09:22;;;;;;;3.47;1.70;;;;;;;15.35;55.21;98099.09;4955295;29;20034;-79
2022/12/14 10:12:05;;;;;;;4.15;1.88;;;;;;;15.36;55.19;98092.91;4954283;29;20031;-79
2022/12/14 10:14:57;;;;;;;2.53;1.35;;;;;;;15.36;55.21;98090.28;4955382;29;20057;-79
2022/12/14 10:17:32;;;;;;;2.25;1.40;;;;;;;15.35;55.14;98091.22;4955479;29;20030;-79
2022/12/14 10:20:34;;;;;;;2.45;1.63;;;;;;;15.34;55.36;98097.41;4955258;29;20538;-79
2022/12/14 10:23:01;;;;;;;3.42;1.52;;;;;;;15.35;55.03;98096.47;4954960;29;20100;-79
2022/12/14 10:25:36;;;;;;;3.28;1.88;;;;;;;15.36;55.11;98092.91;4955117;29;20392;-78
2022/12/14 10:28:38;;;;;;;2.75;1.58;;;;;;;15.39;54.99;98090.06;4955377;29;20051;-79
2022/12/14 10:31:06;;;;;;;3.67;1.90;;;;;;;15.37;55.24;98078.81;4955262;29;20133;-79
2022/12/14 10:33:40;;;;;;;2.97;1.40;;;;;;;15.37;55.11;98082.31;4955284;29;20427;-79
2022/12/14 10:36:11;;;;;;;3.05;1.40;;;;;;;15.38;55.14;98076.09;4935864;29;20488;-80
2022/12/14 10:38:57;;;;;;;3.38;1.50;;;;;;;15.38;55.20;98072.63;4935671;29;20028;-79
2022/12/14 10:41:22;;;;;;;3.05;1.60;;;;;;;15.38;54.97;98077.88;4935909;29;20036;-79
2022/12/14 10:44:02;;;;;;;3.13;1.60;;;;;;;15.38;55.19;98078.72;4937476;29;20404;-79
2022/12/14 10:46:43;;;;;;;2.90;1.48;;;;;;;15.39;55.00;98076.94;4937943;29;20038;-80
2022/12/14 10:49:16;;;;;;;3.28;1.50;;;;;;;15.38;54.94;98077.88;4954950;29;20031;-79
2022/12/14 10:51:53;;;;;;;1.85;1.10;;;;;;;15.39;55.14;98075.16;4954624;29;20038;-80
2022/12/14 10:54:37;;;;;;;2.58;1.58;;;;;;;15.39;55.15;98069.03;4954882;29;20032;-79
2022/12/14 10:57:03;;;;;;;2.28;1.30;;;;;;;15.39;55.02;98062.03;4954598;29;20134;-79
2022/12/14 10:59:34;;;;;;;2.25;1.50;;;;;;;15.41;55.22;98062.75;4954772;29;20110;-80
2022/12/14 11:02:18;;;;;;;3.85;1.80;;;;;;;15.41;54.98;98059.31;4954848;29;20031;-79
2022/12/14 11:04:50;;;;;;;3.35;1.60;;;;;;;15.42;55.21;98061.84;4947331;29;20166;-79
2022/12/14 11:07:22;;;;;;;1.95;1.25;;;;;;;15.42;55.27;98061.00;4954326;29;20024;-79
2022/12/14 11:09:47;;;;;;;2.55;1.42;;;;;;;15.43;55.07;98054.78;4954806;29;20530;-79
2022/12/14 11:12:12;;;;;;;3.00;1.63;;;;;;;15.43;55.05;98055.66;4954598;28;20023;-80
2022/12/14 11:15:00;;;;;;;3.78;1.65;;;;;;;15.44;55.14;98049.44;4954858;29;20090;-80
2022/12/14 11:17:41;;;;;;;3.13;1.60;;;;;;;15.44;55.11;98045.97;4955017;29;20034;-80
2022/12/14 11:20:19;;;;;;;3.03;1.50;;;;;;;15.45;55.13;98050.28;4954560;29;20435;-81
2022/12/14 11:22:51;;;;;;;2.95;1.50;;;;;;;15.44;55.22;98045.97;4954847;29;20047;-79
2022/12/14 11:25:27;;;;;;;3.78;1.75;;;;;;;15.44;55.34;98040.72;4954567;29;20404;-79
2022/12/14 11:27:52;;;;;;;3.03;1.45;;;;;;;15.46;55.12;98046.75;4954814;29;20024;-79
2022/12/14 11:30:29;;;;;;;3.38;1.55;;;;;;;15.44;55.03;98049.44;4938625;29;20035;-80
2022/12/14 11:32:54;;;;;;;;;;;;;;;15.45;55.26;98037.13;4955429;29;20029;-79
2022/12/14 11:35:20;;;;;;;2.67;1.63;;;;;;;15.45;55.32;98031.88;4937053;29;19922;-79
2022/12/14 11:37:49;;;;;;;2.85;1.50;;;;;;;15.47;55.17;98034.41;4954101;29;20154;-79
2022/12/14 11:40:26;;;;;;;3.08;1.50;;;;;;;15.47;55.03;98030.03;4954571;29;20035;-79
2022/12/14 11:42:58;;;;;;;;;;;;;;;15.48;55.18;98021.19;4957374;29;20023;-80
2022/12/14 11:45:35;;;;;;;2.13;1.30;;;;;;;15.49;55.28;98020.25;4958783;28;19914;-80
2022/12/14 11:48:13;;;;;;;3.30;1.77;;;;;;;15.50;55.22;98013.22;4969292;28;20038;-79
2022/12/14 11:50:38;;;;;;;2.92;1.55;;;;;;;15.51;54.95;98004.38;4964856;28;20085;-79
2022/12/14 11:53:08;;;;;;;3.35;1.63;;;;;;;15.50;55.09;98000.91;4941205;29;20114;-79
2022/12/14 11:55:37;;;;;;;2.83;1.55;;;;;;;15.49;55.37;97993.97;4958257;28;20106;-79
2022/12/14 11:58:05;;;;;;;2.92;1.55;;;;;;;15.52;55.13;97987.66;4936418;29;20051;-79
2022/12/14 12:00:46;;;;;;;2.97;1.63;;;;;;;15.52;55.32;97985.91;4953084;29;20046;-79
2022/12/14 12:03:20;;;;;;;3.28;1.40;;;;;;;15.54;55.29;97986.63;4936695;29;20500;-79
2022/12/14 12:05:46;;;;;;;3.67;1.98;;;;;;;15.53;55.38;97987.59;4953978;29;20047;-80